sensor_id;sensor_type;location;lat;lon;timestamp;pressure;altitude;pressure_sealevel;temperature;humidity
6974;BME280;3527;52.376;8.990;2023-07-16T00:02:03;100494.34;;;20.25;100.00
6974;BME280;3527;52.376;8.990;2023-07-16T00:04:31;100478.16;;;20.25;100.00
6974;BME280;3527;52.376;8.990;2023-07-16T00:07:01;100510.75;;;20.17;100.00
6974;BME280;3527;52.376;8.990;2023-07-16T00:09:28;100523.78;;;20.15;100.00
6974;BME280;3527;52.376;8.990;2023-07-16T00:11:56;100499.84;;;19.99;100.00
6974;BME280;3527;52.376;8.990;2023-07-16T00:14:23;100510.69;;;20.04;100.00
6974;BME280;3527;52.376;8.990;2023-07-16T00:16:50;100514.22;;;20.09;100.00
6974;BME280;3527;52.376;8.990;2023-07-16T00:19:17;100523.19;;;20.07;100.00
6974;BME280;3527;52.376;8.990;2023-07-16T00:21:44;100516.53;;;20.14;100.00
6974;BME280;3527;52.376;8.990;2023-07-16T00:24:11;100545.84;;;20.07;100.00
6974;BME280;3527;52.376;8.990;2023-07-16T00:26:38;100546.28;;;20.05;100.00
6974;BME280;3527;52.376;8.990;2023-07-16T00:29:05;100543.47;;;20.05;100.00
6974;BME280;3527;52.376;8.990;2023-07-16T00:31:32;100551.44;;;20.11;100.00
6974;BME280;3527;52.376;8.990;2023-07-16T00:33:59;100547.78;;;20.10;100.00
6974;BME280;3527;52.376;8.990;2023-07-16T00:36:26;100549.47;;;20.08;100.00
6974;BME280;3527;52.376;8.990;2023-07-16T00:38:53;100536.91;;;20.09;100.00
6974;BME280;3527;52.376;8.990;2023-07-16T00:41:20;100539.09;;;20.17;100.00
6974;BME280;3527;52.376;8.990;2023-07-16T00:43:47;100553.91;;;20.25;100.00
6974;BME280;3527;52.376;8.990;2023-07-16T00:46:14;100550.09;;;20.15;100.00
6974;BME280;3527;52.376;8.990;2023-07-16T00:48:42;100553.47;;;20.10;100.00
6974;BME280;3527;52.376;8.990;2023-07-16T00:51:09;100548.25;;;20.09;100.00
6974;BME280;3527;52.376;8.990;2023-07-16T00:53:36;100539.97;;;19.98;100.00
6974;BME280;3527;52.376;8.990;2023-07-16T00:56:03;100554.09;;;20.01;100.00
6974;BME280;3527;52.376;8.990;2023-07-16T00:58:30;100585.34;;;20.14;100.00
6974;BME280;3527;52.376;8.990;2023-07-16T01:00:57;100577.63;;;19.98;100.00
6974;BME280;3527;52.376;8.990;2023-07-16T01:03:24;100570.09;;;19.92;100.00
6974;BME280;3527;52.376;8.990;2023-07-16T01:06:04;100568.22;;;19.85;100.00
6974;BME280;3527;52.376;8.990;2023-07-16T01:08:46;100568.06;;;19.92;100.00
6974;BME280;3527;52.376;8.990;2023-07-16T01:11:14;100564.88;;;19.90;100.00
6974;BME280;3527;52.376;8.990;2023-07-16T01:13:42;100561.84;;;19.97;100.00
6974;BME280;3527;52.376;8.990;2023-07-16T01:16:23;100570.28;;;20.01;100.00
6974;BME280;3527;52.376;8.990;2023-07-16T01:18:51;100574.28;;;20.03;100.00
6974;BME280;3527;52.376;8.990;2023-07-16T01:21:19;100578.53;;;20.12;100.00
6974;BME280;3527;52.376;8.990;2023-07-16T01:29:49;100605.63;;;20.13;100.00
6974;BME280;3527;52.376;8.990;2023-07-16T01:32:18;100599.25;;;20.09;100.00
6974;BME280;3527;52.376;8.990;2023-07-16T01:34:47;100584.88;;;19.99;100.00
6974;BME280;3527;52.376;8.990;2023-07-16T01:37:15;100573.53;;;19.99;100.00
6974;BME280;3527;52.376;8.990;2023-07-16T01:39:42;100562.22;;;19.99;100.00
6974;BME280;3527;52.376;8.990;2023-07-16T01:42:09;100573.41;;;20.06;100.00
6974;BME280;3527;52.376;8.990;2023-07-16T01:44:37;100579.41;;;20.09;100.00
6974;BME280;3527;52.376;8.990;2023-07-16T01:47:12;100566.28;;;19.98;100.00
6974;BME280;3527;52.376;8.990;2023-07-16T01:49:40;100570.09;;;19.92;100.00
6974;BME280;3527;52.376;8.990;2023-07-16T01:52:09;100570.09;;;19.92;100.00
6974;BME280;3527;52.376;8.990;2023-07-16T01:54:37;100567.88;;;19.99;100.00
6974;BME280;3527;52.376;8.990;2023-07-16T01:57:04;100579.06;;;20.06;100.00
6974;BME280;3527;52.376;8.990;2023-07-16T01:59:31;100577.63;;;19.98;100.00
6974;BME280;3527;52.376;8.990;2023-07-16T02:01:58;100577.63;;;19.98;100.00
6974;BME280;3527;52.376;8.990;2023-07-16T02:04:25;100573.53;;;19.99;100.00
6974;BME280;3527;52.376;8.990;2023-07-16T02:06:52;100581.91;;;20.06;100.00
6974;BME280;3527;52.376;8.990;2023-07-16T02:09:19;100581.91;;;20.06;100.00
6974;BME280;3527;52.376;8.990;2023-07-16T02:11:45;100581.88;;;19.90;100.00
6974;BME280;3527;52.376;8.990;2023-07-16T02:14:12;100585.97;;;20.05;100.00
6974;BME280;3527;52.376;8.990;2023-07-16T02:16:40;100581.47;;;20.08;100.00
6974;BME280;3527;52.376;8.990;2023-07-16T02:19:07;100581.47;;;20.08;100.00
6974;BME280;3527;52.376;8.990;2023-07-16T02:21:34;100577.47;;;20.05;100.00
6974;BME280;3527;52.376;8.990;2023-07-16T02:24:03;100577.47;;;20.05;100.00
6974;BME280;3527;52.376;8.990;2023-07-16T02:26:30;100571.81;;;20.05;100.00
6974;BME280;3527;52.376;8.990;2023-07-16T02:28:57;100580.84;;;20.00;100.00
6974;BME280;3527;52.376;8.990;2023-07-16T02:31:25;100587.53;;;19.90;100.00
6974;BME280;3527;52.376;8.990;2023-07-16T02:33:52;100587.53;;;19.90;100.00
6974;BME280;3527;52.376;8.990;2023-07-16T02:36:19;100587.53;;;19.90;100.00
6974;BME280;3527;52.376;8.990;2023-07-16T02:38:46;100598.06;;;19.90;100.00
6974;BME280;3527;52.376;8.990;2023-07-16T02:41:13;100598.06;;;19.90;100.00
6974;BME280;3527;52.376;8.990;2023-07-16T02:43:40;100604.19;;;19.88;100.00
6974;BME280;3527;52.376;8.990;2023-07-16T02:46:07;100604.19;;;19.88;100.00
6974;BME280;3527;52.376;8.990;2023-07-16T02:48:34;100606.28;;;19.84;100.00
6974;BME280;3527;52.376;8.990;2023-07-16T02:51:00;100613.38;;;19.76;100.00
6974;BME280;3527;52.376;8.990;2023-07-16T02:53:28;100608.19;;;19.71;100.00
6974;BME280;3527;52.376;8.990;2023-07-16T02:55:54;100606.41;;;19.61;100.00
6974;BME280;3527;52.376;8.990;2023-07-16T02:58:21;100596.94;;;19.67;100.00
6974;BME280;3527;52.376;8.990;2023-07-16T03:00:48;100604.28;;;19.65;100.00
6974;BME280;3527;52.376;8.990;2023-07-16T03:03:15;100606.25;;;19.68;100.00
6974;BME280;3527;52.376;8.990;2023-07-16T03:05:42;100606.25;;;19.68;100.00
6974;BME280;3527;52.376;8.990;2023-07-16T03:08:09;100621.38;;;19.61;100.00
6974;BME280;3527;52.376;8.990;2023-07-16T03:10:36;100623.59;;;19.50;100.00
6974;BME280;3527;52.376;8.990;2023-07-16T03:13:03;100623.59;;;19.50;100.00
6974;BME280;3527;52.376;8.990;2023-07-16T03:15:30;100623.59;;;19.50;100.00
6974;BME280;3527;52.376;8.990;2023-07-16T03:17:57;100625.03;;;19.38;100.00
6974;BME280;3527;52.376;8.990;2023-07-16T03:20:24;100620.69;;;19.34;100.00
6974;BME280;3527;52.376;8.990;2023-07-16T03:22:51;100618.81;;;19.27;100.00
6974;BME280;3527;52.376;8.990;2023-07-16T03:25:18;100613.41;;;19.13;100.00
6974;BME280;3527;52.376;8.990;2023-07-16T03:27:44;100619.06;;;19.13;100.00
6974;BME280;3527;52.376;8.990;2023-07-16T03:30:11;100631.25;;;19.10;100.00
6974;BME280;3527;52.376;8.990;2023-07-16T03:32:38;100617.09;;;19.10;100.00
6974;BME280;3527;52.376;8.990;2023-07-16T03:35:18;100617.75;;;18.98;100.00
6974;BME280;3527;52.376;8.990;2023-07-16T03:37:46;100633.00;;;19.04;100.00
6974;BME280;3527;52.376;8.990;2023-07-16T03:40:14;100626.75;;;18.93;100.00
6974;BME280;3527;52.376;8.990;2023-07-16T03:42:42;100634.09;;;18.87;100.00
6974;BME280;3527;52.376;8.990;2023-07-16T03:45:10;127059.75;;;18.87;100.00
6974;BME280;3527;52.376;8.990;2023-07-16T03:47:37;100631.72;;;18.85;100.00
6974;BME280;3527;52.376;8.990;2023-07-16T03:50:05;100646.72;;;18.82;100.00
6974;BME280;3527;52.376;8.990;2023-07-16T03:52:32;100651.59;;;18.81;100.00
6974;BME280;3527;52.376;8.990;2023-07-16T03:54:59;100660.13;;;18.78;100.00
6974;BME280;3527;52.376;8.990;2023-07-16T03:57:28;100670.59;;;18.81;100.00
6974;BME280;3527;52.376;8.990;2023-07-16T03:59:55;100670.59;;;18.81;100.00
6974;BME280;3527;52.376;8.990;2023-07-16T04:02:23;100678.09;;;18.68;100.00
6974;BME280;3527;52.376;8.990;2023-07-16T04:04:50;100678.09;;;18.68;100.00
6974;BME280;3527;52.376;8.990;2023-07-16T04:07:18;100684.44;;;18.75;100.00
6974;BME280;3527;52.376;8.990;2023-07-16T04:09:45;69532.09;;;18.75;100.00
6974;BME280;3527;52.376;8.990;2023-07-16T04:12:12;69532.09;;;-145.07;100.00
6974;BME280;3527;52.376;8.990;2023-07-16T04:14:39;69532.09;;;-145.07;100.00
6974;BME280;3527;52.376;8.990;2023-07-16T04:17:26;69532.09;;;-145.07;100.00
6974;BME280;3527;52.376;8.990;2023-07-16T04:20:13;69532.09;;;-145.07;100.00
6974;BME280;3527;52.376;8.990;2023-07-16T04:22:49;69532.09;;;-145.07;100.00
6974;BME280;3527;52.376;8.990;2023-07-16T04:25:36;69532.09;;;-145.07;100.00
6974;BME280;3527;52.376;8.990;2023-07-16T04:28:22;69532.09;;;-145.07;100.00
6974;BME280;3527;52.376;8.990;2023-07-16T04:30:51;69532.09;;;-145.07;100.00
6974;BME280;3527;52.376;8.990;2023-07-16T04:33:21;69532.09;;;-145.07;100.00
6974;BME280;3527;52.376;8.990;2023-07-16T04:36:08;69532.09;;;-145.07;100.00
6974;BME280;3527;52.376;8.990;2023-07-16T04:38:54;69532.09;;;-145.07;100.00
6974;BME280;3527;52.376;8.990;2023-07-16T04:41:21;69532.09;;;-145.07;100.00
6974;BME280;3527;52.376;8.990;2023-07-16T04:43:49;69532.09;;;-145.07;100.00
6974;BME280;3527;52.376;8.990;2023-07-16T04:46:17;69532.09;;;-145.07;100.00
6974;BME280;3527;52.376;8.990;2023-07-16T04:48:44;69532.09;;;-145.07;100.00
6974;BME280;3527;52.376;8.990;2023-07-16T04:51:11;69532.09;;;-145.07;100.00
6974;BME280;3527;52.376;8.990;2023-07-16T04:53:38;69532.09;;;-145.07;100.00
6974;BME280;3527;52.376;8.990;2023-07-16T04:56:14;69532.09;;;-145.07;100.00
6974;BME280;3527;52.376;8.990;2023-07-16T04:58:42;69532.09;;;-145.07;100.00
6974;BME280;3527;52.376;8.990;2023-07-16T05:01:09;69532.09;;;-145.07;100.00
6974;BME280;3527;52.376;8.990;2023-07-16T05:03:36;69532.09;;;-145.07;100.00
6974;BME280;3527;52.376;8.990;2023-07-16T05:06:04;69532.09;;;-145.07;100.00
6974;BME280;3527;52.376;8.990;2023-07-16T05:08:31;69532.09;;;-145.07;100.00
6974;BME280;3527;52.376;8.990;2023-07-16T05:10:57;69532.09;;;-145.07;100.00
6974;BME280;3527;52.376;8.990;2023-07-16T05:13:26;69532.09;;;-145.07;100.00
6974;BME280;3527;52.376;8.990;2023-07-16T05:15:53;69532.09;;;-145.07;100.00
6974;BME280;3527;52.376;8.990;2023-07-16T05:18:20;69532.09;;;-145.07;100.00
6974;BME280;3527;52.376;8.990;2023-07-16T05:20:48;69532.09;;;-145.07;100.00
6974;BME280;3527;52.376;8.990;2023-07-16T05:23:18;69532.09;;;-145.07;100.00
6974;BME280;3527;52.376;8.990;2023-07-16T05:25:46;69532.09;;;-145.07;100.00
6974;BME280;3527;52.376;8.990;2023-07-16T05:28:18;69532.09;;;-145.07;100.00
6974;BME280;3527;52.376;8.990;2023-07-16T05:30:45;69532.09;;;-145.07;100.00
6974;BME280;3527;52.376;8.990;2023-07-16T05:33:12;69532.09;;;-145.07;100.00
6974;BME280;3527;52.376;8.990;2023-07-16T05:35:39;69532.09;;;-145.07;100.00
6974;BME280;3527;52.376;8.990;2023-07-16T05:38:06;69532.09;;;-145.07;100.00
6974;BME280;3527;52.376;8.990;2023-07-16T05:40:33;69532.09;;;-145.07;100.00
6974;BME280;3527;52.376;8.990;2023-07-16T05:43:01;69532.09;;;-145.07;100.00
6974;BME280;3527;52.376;8.990;2023-07-16T05:45:29;69532.09;;;-145.07;100.00
6974;BME280;3527;52.376;8.990;2023-07-16T05:47:56;69532.09;;;-145.07;100.00
6974;BME280;3527;52.376;8.990;2023-07-16T05:50:23;69532.09;;;-145.07;100.00
6974;BME280;3527;52.376;8.990;2023-07-16T05:52:50;69532.09;;;-145.07;100.00
6974;BME280;3527;52.376;8.990;2023-07-16T05:55:18;69532.09;;;-145.07;100.00
6974;BME280;3527;52.376;8.990;2023-07-16T05:57:45;69532.09;;;-145.07;100.00
6974;BME280;3527;52.376;8.990;2023-07-16T06:00:13;69532.09;;;-145.07;100.00
6974;BME280;3527;52.376;8.990;2023-07-16T06:02:40;69532.09;;;-145.07;100.00
6974;BME280;3527;52.376;8.990;2023-07-16T06:05:07;69532.09;;;-145.07;100.00
6974;BME280;3527;52.376;8.990;2023-07-16T06:07:34;69532.09;;;-145.07;100.00
6974;BME280;3527;52.376;8.990;2023-07-16T06:10:01;69532.09;;;-145.07;100.00
6974;BME280;3527;52.376;8.990;2023-07-16T06:12:30;69532.09;;;-145.07;100.00
6974;BME280;3527;52.376;8.990;2023-07-16T06:14:58;69532.09;;;-145.07;100.00
6974;BME280;3527;52.376;8.990;2023-07-16T06:17:25;69532.09;;;-145.07;100.00
6974;BME280;3527;52.376;8.990;2023-07-16T06:19:53;69532.09;;;-145.07;100.00
6974;BME280;3527;52.376;8.990;2023-07-16T06:22:20;69532.09;;;-145.07;100.00
6974;BME280;3527;52.376;8.990;2023-07-16T06:24:47;69532.09;;;-145.07;100.00
6974;BME280;3527;52.376;8.990;2023-07-16T06:27:17;69532.09;;;-145.07;100.00
6974;BME280;3527;52.376;8.990;2023-07-16T06:29:44;69532.09;;;-145.07;100.00
6974;BME280;3527;52.376;8.990;2023-07-16T06:32:11;69532.09;;;-145.07;100.00
6974;BME280;3527;52.376;8.990;2023-07-16T06:34:38;69532.09;;;-145.07;100.00
6974;BME280;3527;52.376;8.990;2023-07-16T06:37:06;69532.09;;;-145.07;100.00
6974;BME280;3527;52.376;8.990;2023-07-16T06:39:33;69532.09;;;-145.07;100.00
6974;BME280;3527;52.376;8.990;2023-07-16T06:42:00;69532.09;;;-145.07;100.00
6974;BME280;3527;52.376;8.990;2023-07-16T06:44:28;69532.09;;;-145.07;100.00
6974;BME280;3527;52.376;8.990;2023-07-16T06:46:55;69532.09;;;-145.07;100.00
6974;BME280;3527;52.376;8.990;2023-07-16T06:49:22;69532.09;;;-145.07;100.00
6974;BME280;3527;52.376;8.990;2023-07-16T06:51:49;69532.09;;;-145.07;100.00
6974;BME280;3527;52.376;8.990;2023-07-16T06:54:16;69532.09;;;-145.07;100.00
6974;BME280;3527;52.376;8.990;2023-07-16T06:56:43;69532.09;;;-145.07;100.00
6974;BME280;3527;52.376;8.990;2023-07-16T06:59:10;69532.09;;;-145.07;100.00
6974;BME280;3527;52.376;8.990;2023-07-16T07:01:37;69532.09;;;-145.07;100.00
6974;BME280;3527;52.376;8.990;2023-07-16T07:04:04;69532.09;;;-145.07;100.00
6974;BME280;3527;52.376;8.990;2023-07-16T07:06:31;69532.09;;;-145.07;100.00
6974;BME280;3527;52.376;8.990;2023-07-16T07:08:58;69532.09;;;-145.07;100.00
6974;BME280;3527;52.376;8.990;2023-07-16T07:11:26;69532.09;;;-145.07;100.00
6974;BME280;3527;52.376;8.990;2023-07-16T07:13:53;69532.09;;;-145.07;100.00
6974;BME280;3527;52.376;8.990;2023-07-16T07:16:23;69532.09;;;-145.07;100.00
6974;BME280;3527;52.376;8.990;2023-07-16T07:18:50;69532.09;;;-145.07;100.00
6974;BME280;3527;52.376;8.990;2023-07-16T07:21:18;69532.09;;;-145.07;100.00
6974;BME280;3527;52.376;8.990;2023-07-16T07:23:45;69532.09;;;-145.07;100.00
6974;BME280;3527;52.376;8.990;2023-07-16T07:26:12;69532.09;;;-145.07;100.00
6974;BME280;3527;52.376;8.990;2023-07-16T07:28:40;69532.09;;;-145.07;100.00
6974;BME280;3527;52.376;8.990;2023-07-16T07:31:06;69532.09;;;-145.07;100.00
6974;BME280;3527;52.376;8.990;2023-07-16T07:33:33;69532.09;;;-145.07;100.00
6974;BME280;3527;52.376;8.990;2023-07-16T07:36:00;69532.09;;;-145.07;100.00
6974;BME280;3527;52.376;8.990;2023-07-16T07:38:27;69532.09;;;-145.07;100.00
6974;BME280;3527;52.376;8.990;2023-07-16T07:40:55;69532.09;;;-145.07;100.00
6974;BME280;3527;52.376;8.990;2023-07-16T07:43:23;69532.09;;;-145.07;100.00
6974;BME280;3527;52.376;8.990;2023-07-16T07:45:49;69532.09;;;-145.07;100.00
6974;BME280;3527;52.376;8.990;2023-07-16T07:48:16;69532.09;;;-145.07;100.00
6974;BME280;3527;52.376;8.990;2023-07-16T07:50:43;69532.09;;;-145.07;100.00
6974;BME280;3527;52.376;8.990;2023-07-16T07:53:10;69532.09;;;-145.07;100.00
6974;BME280;3527;52.376;8.990;2023-07-16T07:55:37;69532.09;;;-145.07;100.00
6974;BME280;3527;52.376;8.990;2023-07-16T07:58:04;69532.09;;;-145.07;100.00
6974;BME280;3527;52.376;8.990;2023-07-16T08:00:31;69532.09;;;-145.07;100.00
6974;BME280;3527;52.376;8.990;2023-07-16T08:02:57;69532.09;;;-145.07;100.00
6974;BME280;3527;52.376;8.990;2023-07-16T08:05:24;69532.09;;;-145.07;100.00
6974;BME280;3527;52.376;8.990;2023-07-16T08:07:51;69532.09;;;-145.07;100.00
6974;BME280;3527;52.376;8.990;2023-07-16T08:10:19;69532.09;;;-145.07;100.00
6974;BME280;3527;52.376;8.990;2023-07-16T08:12:46;69532.09;;;-145.07;100.00
6974;BME280;3527;52.376;8.990;2023-07-16T08:15:13;69532.09;;;-145.07;100.00
6974;BME280;3527;52.376;8.990;2023-07-16T08:17:45;69532.09;;;-145.07;100.00
6974;BME280;3527;52.376;8.990;2023-07-16T08:20:12;69532.09;;;-145.07;100.00
6974;BME280;3527;52.376;8.990;2023-07-16T08:22:40;69532.09;;;-145.07;100.00
6974;BME280;3527;52.376;8.990;2023-07-16T08:25:07;69532.09;;;-145.07;100.00
6974;BME280;3527;52.376;8.990;2023-07-16T08:27:34;69532.09;;;-145.07;100.00
6974;BME280;3527;52.376;8.990;2023-07-16T08:30:01;69532.09;;;-145.07;100.00
6974;BME280;3527;52.376;8.990;2023-07-16T08:32:28;69532.09;;;-145.07;100.00
6974;BME280;3527;52.376;8.990;2023-07-16T08:34:55;69532.09;;;-145.07;100.00
6974;BME280;3527;52.376;8.990;2023-07-16T08:37:21;69532.09;;;-145.07;100.00
6974;BME280;3527;52.376;8.990;2023-07-16T08:39:51;69532.09;;;-145.07;100.00
6974;BME280;3527;52.376;8.990;2023-07-16T08:42:19;69532.09;;;-145.07;100.00
6974;BME280;3527;52.376;8.990;2023-07-16T08:44:50;69532.09;;;-145.07;100.00
6974;BME280;3527;52.376;8.990;2023-07-16T08:47:17;69532.09;;;-145.07;100.00
6974;BME280;3527;52.376;8.990;2023-07-16T08:50:04;69532.09;;;-145.07;100.00
6974;BME280;3527;52.376;8.990;2023-07-16T08:52:31;69532.09;;;-145.07;100.00
6974;BME280;3527;52.376;8.990;2023-07-16T08:54:59;69532.09;;;-145.07;100.00
6974;BME280;3527;52.376;8.990;2023-07-16T08:57:26;69532.09;;;-145.07;100.00
6974;BME280;3527;52.376;8.990;2023-07-16T08:59:54;69532.09;;;-145.07;100.00
6974;BME280;3527;52.376;8.990;2023-07-16T09:02:23;69532.09;;;-145.07;100.00
6974;BME280;3527;52.376;8.990;2023-07-16T09:04:50;69532.09;;;-145.07;100.00
6974;BME280;3527;52.376;8.990;2023-07-16T09:07:21;69532.09;;;-145.07;100.00
6974;BME280;3527;52.376;8.990;2023-07-16T09:09:59;69532.09;;;-145.07;100.00
6974;BME280;3527;52.376;8.990;2023-07-16T09:12:27;69532.09;;;-145.07;100.00
6974;BME280;3527;52.376;8.990;2023-07-16T09:14:55;69532.09;;;-145.07;100.00
6974;BME280;3527;52.376;8.990;2023-07-16T09:17:23;69532.09;;;-145.07;100.00
6974;BME280;3527;52.376;8.990;2023-07-16T09:19:51;69532.09;;;-145.07;100.00
6974;BME280;3527;52.376;8.990;2023-07-16T09:22:19;69532.09;;;-145.07;100.00
6974;BME280;3527;52.376;8.990;2023-07-16T09:24:48;69532.09;;;-145.07;100.00
6974;BME280;3527;52.376;8.990;2023-07-16T09:27:20;69532.09;;;-145.07;100.00
6974;BME280;3527;52.376;8.990;2023-07-16T09:29:52;69532.09;;;-145.07;100.00
6974;BME280;3527;52.376;8.990;2023-07-16T09:32:19;69532.09;;;-145.07;100.00
6974;BME280;3527;52.376;8.990;2023-07-16T09:34:49;69532.09;;;-145.07;100.00
6974;BME280;3527;52.376;8.990;2023-07-16T09:37:18;69532.09;;;-145.07;100.00
6974;BME280;3527;52.376;8.990;2023-07-16T09:39:47;69532.09;;;-145.07;100.00
6974;BME280;3527;52.376;8.990;2023-07-16T09:42:20;69532.09;;;-145.07;100.00
6974;BME280;3527;52.376;8.990;2023-07-16T09:44:53;69532.09;;;-145.07;100.00
6974;BME280;3527;52.376;8.990;2023-07-16T09:47:31;69532.09;;;-145.07;100.00
6974;BME280;3527;52.376;8.990;2023-07-16T09:50:00;69532.09;;;-145.07;100.00
6974;BME280;3527;52.376;8.990;2023-07-16T09:52:27;69532.09;;;-145.07;100.00
6974;BME280;3527;52.376;8.990;2023-07-16T09:54:56;69532.09;;;-145.07;100.00
6974;BME280;3527;52.376;8.990;2023-07-16T09:57:25;69532.09;;;-145.07;100.00
6974;BME280;3527;52.376;8.990;2023-07-16T09:59:55;69532.09;;;-145.07;100.00
6974;BME280;3527;52.376;8.990;2023-07-16T10:02:24;69532.09;;;-145.07;100.00
6974;BME280;3527;52.376;8.990;2023-07-16T10:04:51;69532.09;;;-145.07;100.00
6974;BME280;3527;52.376;8.990;2023-07-16T10:07:24;69532.09;;;-145.07;100.00
6974;BME280;3527;52.376;8.990;2023-07-16T10:12:19;69532.09;;;-145.07;100.00
6974;BME280;3527;52.376;8.990;2023-07-16T10:14:55;69532.09;;;-145.07;100.00
6974;BME280;3527;52.376;8.990;2023-07-16T10:17:26;69532.09;;;-145.07;100.00
6974;BME280;3527;52.376;8.990;2023-07-16T10:22:36;69532.09;;;-145.07;100.00
6974;BME280;3527;52.376;8.990;2023-07-16T10:25:10;69532.09;;;-145.07;100.00
6974;BME280;3527;52.376;8.990;2023-07-16T10:27:37;69532.09;;;-145.07;100.00
6974;BME280;3527;52.376;8.990;2023-07-16T10:30:05;69532.09;;;-145.07;100.00
6974;BME280;3527;52.376;8.990;2023-07-16T10:32:33;69532.09;;;-145.07;100.00
6974;BME280;3527;52.376;8.990;2023-07-16T10:35:00;69532.09;;;-145.07;100.00
6974;BME280;3527;52.376;8.990;2023-07-16T10:37:28;69532.09;;;-145.07;100.00
6974;BME280;3527;52.376;8.990;2023-07-16T10:39:57;69532.09;;;-145.07;100.00
6974;BME280;3527;52.376;8.990;2023-07-16T10:42:26;69532.09;;;-145.07;100.00
6974;BME280;3527;52.376;8.990;2023-07-16T10:45:01;69532.09;;;-145.07;100.00
6974;BME280;3527;52.376;8.990;2023-07-16T10:47:29;69532.09;;;-145.07;100.00
6974;BME280;3527;52.376;8.990;2023-07-16T10:49:56;69532.09;;;-145.07;100.00
6974;BME280;3527;52.376;8.990;2023-07-16T10:52:24;69532.09;;;-145.07;100.00
6974;BME280;3527;52.376;8.990;2023-07-16T10:54:51;69532.09;;;-145.07;100.00
6974;BME280;3527;52.376;8.990;2023-07-16T10:57:27;69532.09;;;-145.07;100.00
6974;BME280;3527;52.376;8.990;2023-07-16T10:59:57;69532.09;;;-145.07;100.00
6974;BME280;3527;52.376;8.990;2023-07-16T11:02:25;69532.09;;;-145.07;100.00
6974;BME280;3527;52.376;8.990;2023-07-16T11:04:53;69532.09;;;-145.07;100.00
6974;BME280;3527;52.376;8.990;2023-07-16T11:07:21;69532.09;;;-145.07;100.00
6974;BME280;3527;52.376;8.990;2023-07-16T11:09:50;69532.09;;;-145.07;100.00
6974;BME280;3527;52.376;8.990;2023-07-16T11:12:19;69532.09;;;-145.07;100.00
6974;BME280;3527;52.376;8.990;2023-07-16T11:14:49;69532.09;;;-145.07;100.00
6974;BME280;3527;52.376;8.990;2023-07-16T11:17:16;69532.09;;;-145.07;100.00
6974;BME280;3527;52.376;8.990;2023-07-16T11:19:47;69532.09;;;-145.07;100.00
6974;BME280;3527;52.376;8.990;2023-07-16T11:22:15;69532.09;;;-145.07;100.00
6974;BME280;3527;52.376;8.990;2023-07-16T11:24:45;69532.09;;;-145.07;100.00
6974;BME280;3527;52.376;8.990;2023-07-16T11:27:23;69532.09;;;-145.07;100.00
6974;BME280;3527;52.376;8.990;2023-07-16T11:29:56;69532.09;;;-145.07;100.00
6974;BME280;3527;52.376;8.990;2023-07-16T11:32:34;69532.09;;;-145.07;100.00
6974;BME280;3527;52.376;8.990;2023-07-16T11:35:03;69532.09;;;-145.07;100.00
6974;BME280;3527;52.376;8.990;2023-07-16T11:37:32;69532.09;;;-145.07;100.00
6974;BME280;3527;52.376;8.990;2023-07-16T11:40:08;69532.09;;;-145.07;100.00
6974;BME280;3527;52.376;8.990;2023-07-16T11:42:38;69532.09;;;-145.07;100.00
6974;BME280;3527;52.376;8.990;2023-07-16T11:45:14;69532.09;;;-145.07;100.00
6974;BME280;3527;52.376;8.990;2023-07-16T11:47:41;69532.09;;;-145.07;100.00
6974;BME280;3527;52.376;8.990;2023-07-16T11:50:10;69532.09;;;-145.07;100.00
6974;BME280;3527;52.376;8.990;2023-07-16T11:52:38;69532.09;;;-145.07;100.00
6974;BME280;3527;52.376;8.990;2023-07-16T11:55:05;69532.09;;;-145.07;100.00
6974;BME280;3527;52.376;8.990;2023-07-16T11:57:32;69532.09;;;-145.07;100.00
6974;BME280;3527;52.376;8.990;2023-07-16T11:59:59;69532.09;;;-145.07;100.00
6974;BME280;3527;52.376;8.990;2023-07-16T12:02:26;69532.09;;;-145.07;100.00
6974;BME280;3527;52.376;8.990;2023-07-16T12:04:54;69532.09;;;-145.07;100.00
6974;BME280;3527;52.376;8.990;2023-07-16T12:07:35;69532.09;;;-145.07;100.00
6974;BME280;3527;52.376;8.990;2023-07-16T12:10:03;69532.09;;;-145.07;100.00
6974;BME280;3527;52.376;8.990;2023-07-16T12:12:31;69532.09;;;-145.07;100.00
6974;BME280;3527;52.376;8.990;2023-07-16T12:14:59;69532.09;;;-145.07;100.00
6974;BME280;3527;52.376;8.990;2023-07-16T12:17:26;69532.09;;;-145.07;100.00
6974;BME280;3527;52.376;8.990;2023-07-16T12:19:54;69532.09;;;-145.07;100.00
6974;BME280;3527;52.376;8.990;2023-07-16T12:22:23;69532.09;;;-145.07;100.00
6974;BME280;3527;52.376;8.990;2023-07-16T12:24:50;69532.09;;;-145.07;100.00
6974;BME280;3527;52.376;8.990;2023-07-16T12:27:18;69532.09;;;-145.07;100.00
6974;BME280;3527;52.376;8.990;2023-07-16T12:29:45;69532.09;;;-145.07;100.00
6974;BME280;3527;52.376;8.990;2023-07-16T12:32:13;69532.09;;;-145.07;100.00
6974;BME280;3527;52.376;8.990;2023-07-16T12:34:40;69532.09;;;-145.07;100.00
6974;BME280;3527;52.376;8.990;2023-07-16T12:37:07;69532.09;;;-145.07;100.00
6974;BME280;3527;52.376;8.990;2023-07-16T12:39:33;69532.09;;;-145.07;100.00
6974;BME280;3527;52.376;8.990;2023-07-16T12:42:00;69532.09;;;-145.07;100.00
6974;BME280;3527;52.376;8.990;2023-07-16T12:44:29;69532.09;;;-145.07;100.00
6974;BME280;3527;52.376;8.990;2023-07-16T12:46:57;69532.09;;;-145.07;100.00
6974;BME280;3527;52.376;8.990;2023-07-16T12:49:24;69532.09;;;-145.07;100.00
6974;BME280;3527;52.376;8.990;2023-07-16T12:51:51;69532.09;;;-145.07;100.00
6974;BME280;3527;52.376;8.990;2023-07-16T12:54:18;69532.09;;;-145.07;100.00
6974;BME280;3527;52.376;8.990;2023-07-16T12:56:45;69532.09;;;-145.07;100.00
6974;BME280;3527;52.376;8.990;2023-07-16T12:59:12;69532.09;;;-145.07;100.00
6974;BME280;3527;52.376;8.990;2023-07-16T13:01:38;69532.09;;;-145.07;100.00
6974;BME280;3527;52.376;8.990;2023-07-16T13:04:06;69532.09;;;-145.07;100.00
6974;BME280;3527;52.376;8.990;2023-07-16T13:06:33;69532.09;;;-145.07;100.00
6974;BME280;3527;52.376;8.990;2023-07-16T13:09:00;69532.09;;;-145.07;100.00
6974;BME280;3527;52.376;8.990;2023-07-16T13:11:27;69532.09;;;-145.07;100.00